createdAt,value
2018-08-08T00:02:22.394Z,100837.04
2018-08-08T00:04:50.810Z,100830.86
2018-08-08T00:07:19.186Z,100831.88
2018-08-08T00:09:47.585Z,100835.50
2018-08-08T00:12:15.994Z,100835.19
2018-08-08T00:14:44.380Z,100838.77
2018-08-08T00:17:12.782Z,100842.86
2018-08-08T00:19:41.209Z,100840.67
2018-08-08T00:22:09.569Z,100831.97
2018-08-08T00:24:37.967Z,100831.17
2018-08-08T00:27:06.509Z,100825.16
2018-08-08T00:29:34.901Z,100820.92
2018-08-08T00:32:03.445Z,100818.05
2018-08-08T00:34:31.853Z,100816.44
2018-08-08T00:37:00.422Z,100821.45
2018-08-08T00:39:28.813Z,100817.20
2018-08-08T00:41:57.191Z,100809.00
2018-08-08T00:44:25.594Z,100802.48
2018-08-08T00:46:53.978Z,100800.08
2018-08-08T00:49:22.377Z,100804.14
2018-08-08T00:51:50.757Z,100799.83
2018-08-08T00:54:19.157Z,100797.71
2018-08-08T00:56:47.526Z,100793.41
2018-08-08T00:59:15.922Z,100790.53
2018-08-08T01:01:44.299Z,100785.75
2018-08-08T01:04:12.689Z,100780.18
2018-08-08T01:06:41.079Z,100782.05
2018-08-08T01:09:10.177Z,100781.73
2018-08-08T01:11:39.150Z,100777.91
2018-08-08T01:14:07.605Z,100778.91
2018-08-08T01:16:35.979Z,100783.53
2018-08-08T01:19:04.379Z,100777.90
2018-08-08T01:21:32.773Z,100784.20
2018-08-08T01:24:01.167Z,100778.18
2018-08-08T01:26:29.569Z,100781.00
2018-08-08T01:28:57.942Z,100778.49
2018-08-08T01:31:26.377Z,100781.66
2018-08-08T01:33:55.173Z,100783.14
2018-08-08T01:36:23.886Z,100777.03
2018-08-08T01:38:52.545Z,100782.02
2018-08-08T01:41:21.061Z,100785.28
2018-08-08T01:43:49.449Z,100789.36
2018-08-08T01:46:17.853Z,100787.70
2018-08-08T01:48:46.233Z,100779.42
2018-08-08T01:51:14.631Z,100781.28
2018-08-08T01:53:43.013Z,100774.79
2018-08-08T01:56:11.409Z,100771.34
2018-08-08T01:58:39.831Z,100760.39
2018-08-08T02:01:08.213Z,100752.09
2018-08-08T02:03:36.579Z,100757.00
2018-08-08T02:06:05.045Z,100758.00
2018-08-08T02:08:34.013Z,100752.37
2018-08-08T02:11:02.425Z,100751.58
2018-08-08T02:13:30.828Z,100753.38
2018-08-08T02:15:59.491Z,100754.38
2018-08-08T02:18:27.859Z,100759.70
2018-08-08T02:20:56.309Z,100758.46
2018-08-08T02:23:24.677Z,100762.50
2018-08-08T02:25:53.068Z,100764.78
2018-08-08T02:28:21.426Z,100763.19
2018-08-08T02:30:49.813Z,100757.55
2018-08-08T02:33:18.182Z,100752.77
2018-08-08T02:35:46.594Z,100764.87
2018-08-08T02:38:14.962Z,100761.89
2018-08-08T02:40:43.369Z,100756.25
2018-08-08T02:43:11.738Z,100758.17
2018-08-08T02:45:40.142Z,100754.72
2018-08-08T02:48:08.513Z,100759.29
2018-08-08T02:50:36.895Z,100752.80
2018-08-08T02:53:05.289Z,100749.34
2018-08-08T02:55:33.681Z,100748.55
2018-08-08T02:58:02.051Z,100747.22
2018-08-08T03:00:30.450Z,100754.33
2018-08-08T03:02:58.823Z,100758.78
2018-08-08T03:05:27.221Z,100759.31
2018-08-08T03:07:55.629Z,100756.66
2018-08-08T03:10:24.034Z,100759.31
2018-08-08T03:12:52.421Z,100764.71
2018-08-08T03:15:21.069Z,100769.60
2018-08-08T03:17:49.474Z,100769.69
2018-08-08T03:20:18.035Z,100765.35
2018-08-08T03:22:47.461Z,100762.31
2018-08-08T03:25:16.741Z,100764.58
2018-08-08T03:27:45.798Z,100763.31
2018-08-08T03:30:18.032Z,100763.84
2018-08-08T03:32:46.446Z,100763.45
2018-08-08T03:35:15.272Z,100756.97
2018-08-08T03:37:43.696Z,100767.16
2018-08-08T03:40:13.185Z,100764.12
2018-08-08T03:42:41.727Z,100764.66
2018-08-08T03:45:11.182Z,100758.96
2018-08-08T03:47:40.053Z,100758.08
2018-08-08T03:50:09.745Z,100754.09
2018-08-08T03:52:38.449Z,100753.09
2018-08-08T03:55:08.092Z,100748.27
2018-08-08T03:57:36.456Z,100751.71
2018-08-08T04:00:08.135Z,100748.06
2018-08-08T04:02:36.573Z,100754.17
2018-08-08T04:05:05.949Z,100757.62
2018-08-08T04:07:34.761Z,100761.45
2018-08-08T04:10:03.255Z,100760.05
2018-08-08T04:12:31.662Z,100760.78
2018-08-08T04:15:00.052Z,100766.36
2018-08-08T04:17:28.461Z,100767.92
2018-08-08T04:19:56.973Z,100763.36
2018-08-08T04:22:25.357Z,100767.94
2018-08-08T04:24:53.722Z,100769.80
2018-08-08T04:27:22.130Z,100768.17
2018-08-08T04:29:50.865Z,100760.70
2018-08-08T04:32:19.377Z,100763.47
2018-08-08T04:34:47.737Z,100766.77
2018-08-08T04:37:16.124Z,100765.87
2018-08-08T04:39:44.486Z,100770.88
2018-08-08T04:42:12.888Z,100766.14
2018-08-08T04:44:41.263Z,100759.66
2018-08-08T04:47:09.753Z,100755.48
2018-08-08T04:49:38.117Z,100756.22
2018-08-08T04:52:07.158Z,100754.26
2018-08-08T04:54:35.517Z,100757.77
2018-08-08T04:57:04.194Z,100763.02
2018-08-08T04:59:32.561Z,100758.19
2018-08-08T05:02:00.957Z,100761.47
2018-08-08T05:04:29.316Z,100759.51
2018-08-08T05:06:57.715Z,100760.30
2018-08-08T05:09:26.082Z,100758.44
2018-08-08T05:11:54.489Z,100763.22
2018-08-08T05:14:22.845Z,100766.56
2018-08-08T05:16:51.975Z,100771.19
2018-08-08T05:19:20.341Z,100768.68
2018-08-08T05:21:48.755Z,100764.47
2018-08-08T05:24:17.143Z,100764.17
2018-08-08T05:26:45.567Z,100764.80
2018-08-08T05:29:13.937Z,100769.80
2018-08-08T05:31:42.383Z,100770.83
2018-08-08T05:34:42.813Z,100773.75
2018-08-08T05:37:11.230Z,100783.58
2018-08-08T05:39:39.629Z,100788.98
2018-08-08T05:42:08.017Z,100790.45
2018-08-08T05:44:36.388Z,100786.16
2018-08-08T05:47:04.797Z,100792.95
2018-08-08T05:49:33.166Z,100788.17
2018-08-08T05:52:01.546Z,100792.78
2018-08-08T05:54:29.920Z,100800.36
2018-08-08T05:56:58.289Z,100800.52
2018-08-08T05:59:26.682Z,100808.51
2018-08-08T06:01:55.103Z,100807.69
2018-08-08T06:04:23.490Z,100808.12
2018-08-08T06:06:51.858Z,100809.98
2018-08-08T06:09:20.247Z,100814.03
2018-08-08T06:11:48.721Z,100808.83
2018-08-08T06:14:17.132Z,100808.51
2018-08-08T06:16:45.506Z,100808.62
2018-08-08T06:19:13.898Z,100806.34
2018-08-08T06:21:42.269Z,100811.36
2018-08-08T06:24:10.671Z,100813.63
2018-08-08T06:26:39.037Z,100816.63
2018-08-08T06:29:07.429Z,100816.39
2018-08-08T06:31:35.826Z,100813.72
2018-08-08T06:34:04.212Z,100822.19
2018-08-08T06:36:32.582Z,100811.70
2018-08-08T06:39:00.998Z,100818.88
2018-08-08T06:41:29.381Z,100816.71
2018-08-08T06:43:57.780Z,100815.11
2018-08-08T06:46:26.169Z,100815.69
2018-08-08T06:48:54.549Z,100811.78
2018-08-08T06:51:22.917Z,100808.14
2018-08-08T06:53:51.310Z,100812.94
2018-08-08T06:56:19.682Z,100802.55
2018-08-08T06:58:48.065Z,100804.58
2018-08-08T07:01:16.446Z,100809.65
2018-08-08T07:03:44.829Z,100807.55
2018-08-08T07:06:13.202Z,100806.00
2018-08-08T07:08:41.586Z,100810.09
2018-08-08T07:11:09.978Z,100801.31
2018-08-08T07:13:38.390Z,100797.94
2018-08-08T07:16:06.774Z,100797.13
2018-08-08T07:18:35.163Z,100797.27
2018-08-08T07:21:03.533Z,100788.06
2018-08-08T07:23:31.943Z,100793.69
2018-08-08T07:26:00.313Z,100792.95
2018-08-08T07:28:28.717Z,100794.17
2018-08-08T07:30:57.140Z,100797.33
2018-08-08T07:33:25.526Z,100800.90
2018-08-08T07:35:53.891Z,100790.80
2018-08-08T07:38:22.379Z,100792.04
2018-08-08T07:40:50.767Z,100781.19
2018-08-08T07:43:19.159Z,100789.95
2018-08-08T07:45:47.577Z,100786.07
2018-08-08T07:48:16.017Z,100789.56
2018-08-08T07:50:44.393Z,100776.61
2018-08-08T07:53:12.769Z,100783.39
2018-08-08T07:55:41.181Z,100771.13
2018-08-08T07:58:09.687Z,100779.55
2018-08-08T08:00:37.991Z,100778.23
2018-08-08T08:03:06.386Z,100773.28
2018-08-08T08:05:34.793Z,100769.66
2018-08-08T08:08:03.168Z,100777.41
2018-08-08T08:10:31.587Z,100774.77
2018-08-08T08:12:59.987Z,100773.67
2018-08-08T08:15:28.404Z,100769.78
2018-08-08T08:17:56.798Z,100768.79
2018-08-08T08:20:25.201Z,100773.20
2018-08-08T08:22:53.574Z,100773.83
2018-08-08T08:25:22.025Z,100773.11
2018-08-08T08:27:50.368Z,100763.97
2018-08-08T08:30:19.705Z,100768.23
2018-08-08T08:32:48.265Z,100767.36
2018-08-08T08:35:16.670Z,100763.81
2018-08-08T08:37:45.048Z,100767.34
2018-08-08T08:40:14.047Z,100773.06
2018-08-08T08:42:43.110Z,100775.48
2018-08-08T08:45:11.623Z,100778.35
2018-08-08T08:47:40.002Z,100777.24
2018-08-08T08:50:08.856Z,100771.55
2018-08-08T08:52:37.265Z,100780.63
2018-08-08T08:55:06.117Z,100781.08
2018-08-08T08:57:34.613Z,100790.03
2018-08-08T09:00:03.022Z,100796.66
2018-08-08T09:02:31.407Z,100798.00
2018-08-08T09:04:59.806Z,100812.06
2018-08-08T09:07:28.224Z,100823.42
2018-08-08T09:09:56.615Z,100828.48
2018-08-08T09:12:25.015Z,100830.22
2018-08-08T09:14:53.442Z,100827.94
2018-08-08T09:17:21.814Z,100817.33
2018-08-08T09:19:50.205Z,100809.75
2018-08-08T09:22:18.614Z,100809.28
2018-08-08T09:24:46.990Z,100801.44
2018-08-08T09:27:15.387Z,100800.09
2018-08-08T09:29:49.014Z,100800.55
2018-08-08T09:32:17.402Z,100801.50
2018-08-08T09:34:45.765Z,100803.30
2018-08-08T09:37:14.145Z,100801.55
2018-08-08T09:39:42.519Z,100805.80
2018-08-08T09:42:10.956Z,100798.75
2018-08-08T09:44:39.317Z,100796.94
2018-08-08T09:47:07.958Z,100801.65
2018-08-08T09:49:36.375Z,100805.22
2018-08-08T09:52:04.843Z,100801.27
2018-08-08T09:54:33.474Z,100801.73
2018-08-08T09:57:01.899Z,100797.28
2018-08-08T09:59:30.263Z,100794.20
2018-08-08T10:02:04.047Z,100795.20
2018-08-08T10:04:33.339Z,100788.75
2018-08-08T10:07:03.278Z,100784.95
2018-08-08T10:09:31.734Z,100782.37
2018-08-08T10:12:00.158Z,100774.78
2018-08-08T10:14:28.807Z,100775.63
2018-08-08T10:16:57.203Z,100775.25
2018-08-08T10:19:25.606Z,100774.16
2018-08-08T10:21:54.041Z,100769.56
2018-08-08T10:24:22.503Z,100765.83
2018-08-08T10:26:50.882Z,100765.13
2018-08-08T10:29:19.274Z,100762.77
2018-08-08T10:31:47.650Z,100762.48
2018-08-08T10:34:16.130Z,100760.33
2018-08-08T10:36:44.504Z,100763.02
2018-08-08T10:39:13.782Z,100762.35
2018-08-08T10:41:42.401Z,100769.01
2018-08-08T10:44:10.906Z,100765.75
2018-08-08T10:46:39.346Z,100776.58
2018-08-08T10:49:07.809Z,100767.09
2018-08-08T10:51:36.169Z,100758.87
2018-08-08T10:54:04.634Z,100752.52
2018-08-08T10:56:33.069Z,100752.72
2018-08-08T10:59:01.538Z,100755.86
2018-08-08T11:01:29.915Z,100754.44
2018-08-08T11:03:58.385Z,100758.02
2018-08-08T11:06:26.825Z,100762.64
2018-08-08T11:08:55.297Z,100765.75
2018-08-08T11:11:23.748Z,100759.83
2018-08-08T11:13:52.230Z,100755.23
2018-08-08T11:16:20.941Z,100761.43
2018-08-08T11:18:49.327Z,100760.58
2018-08-08T11:21:17.774Z,100761.63
2018-08-08T11:23:46.188Z,100759.52
2018-08-08T11:26:14.618Z,100761.47
2018-08-08T11:28:43.121Z,100759.73
2018-08-08T11:31:11.561Z,100751.66
2018-08-08T11:33:40.002Z,100748.87
2018-08-08T11:36:08.382Z,100751.59
2018-08-08T11:38:36.809Z,100749.09
2018-08-08T11:41:05.308Z,100749.97
2018-08-08T11:43:33.678Z,100744.89
2018-08-08T11:46:02.134Z,100746.24
2018-08-08T11:48:30.620Z,100741.98
2018-08-08T11:50:59.073Z,100740.62
2018-08-08T11:53:27.522Z,100740.31
2018-08-08T11:55:55.999Z,100744.94
2018-08-08T11:58:24.442Z,100737.34
2018-08-08T12:00:52.897Z,100733.84
2018-08-08T12:03:21.345Z,100744.19
2018-08-08T12:05:49.797Z,100736.25
2018-08-08T12:08:18.246Z,100735.97
2018-08-08T12:10:46.710Z,100735.80
2018-08-08T12:13:15.174Z,100743.22
2018-08-08T12:15:43.644Z,100741.66
2018-08-08T12:18:12.087Z,100745.16
2018-08-08T12:20:40.541Z,100740.42
2018-08-08T12:23:08.977Z,100737.72
2018-08-08T12:25:37.459Z,100738.87
2018-08-08T12:28:05.977Z,100730.75
2018-08-08T12:30:34.449Z,100727.53
2018-08-08T12:33:02.903Z,100722.31
2018-08-08T12:35:31.528Z,100724.83
2018-08-08T12:37:59.829Z,100728.91
2018-08-08T12:40:28.358Z,100722.84
2018-08-08T12:42:56.764Z,100724.06
2018-08-08T12:45:25.246Z,100724.63
2018-08-08T12:47:53.707Z,100714.83
2018-08-08T12:50:22.177Z,100721.79
2018-08-08T12:52:50.626Z,100709.98
2018-08-08T12:55:19.201Z,100710.58
2018-08-08T12:57:47.753Z,100712.17
2018-08-08T13:00:16.232Z,100705.41
2018-08-08T13:02:44.706Z,100714.23
2018-08-08T13:05:13.188Z,100712.36
2018-08-08T13:07:41.639Z,100712.30
2018-08-08T13:10:10.108Z,100707.69
2018-08-08T13:12:38.583Z,100705.53
2018-08-08T13:15:08.169Z,100704.42
2018-08-08T13:17:36.615Z,100696.89
2018-08-08T13:20:05.618Z,100696.94
2018-08-08T13:22:34.058Z,100693.89
2018-08-08T13:25:02.545Z,100691.44
2018-08-08T13:27:31.010Z,100695.77
2018-08-08T13:29:59.473Z,100690.01
2018-08-08T13:32:28.134Z,100684.98
2018-08-08T13:34:56.565Z,100680.09
2018-08-08T13:37:25.066Z,100686.59
2018-08-08T13:39:53.494Z,100676.29
2018-08-08T13:42:22.095Z,100678.48
2018-08-08T13:44:50.538Z,100665.27
2018-08-08T13:47:19.002Z,100688.20
2018-08-08T13:49:47.433Z,100681.42
2018-08-08T13:52:15.893Z,100680.89
2018-08-08T13:54:44.326Z,100676.64
2018-08-08T13:57:12.782Z,100677.98
2018-08-08T13:59:41.218Z,100688.14
2018-08-08T14:02:09.705Z,100684.76
2018-08-08T14:04:38.145Z,100682.91
2018-08-08T14:07:06.600Z,100679.35
2018-08-08T14:09:35.044Z,100673.77
2018-08-08T14:12:03.821Z,100681.06
2018-08-08T14:14:32.418Z,100688.03
2018-08-08T14:17:00.898Z,100677.84
2018-08-08T14:19:29.340Z,100674.13
2018-08-08T14:21:57.794Z,100680.42
2018-08-08T14:24:26.225Z,100680.90
2018-08-08T14:26:54.768Z,100682.44
2018-08-08T14:29:23.157Z,100678.34
2018-08-08T14:31:51.542Z,100674.95
2018-08-08T14:34:20.062Z,100683.61
2018-08-08T14:36:48.537Z,100683.95
2018-08-08T14:39:17.020Z,100680.57
2018-08-08T14:41:45.566Z,100684.50
2018-08-08T14:44:14.011Z,100688.07
2018-08-08T14:46:42.474Z,100672.68
2018-08-08T14:49:11.474Z,100670.98
2018-08-08T14:51:39.942Z,100683.38
2018-08-08T14:54:08.415Z,100685.59
2018-08-08T14:56:36.890Z,100685.41
2018-08-08T14:59:05.357Z,100681.52
2018-08-08T15:01:34.215Z,100683.75
2018-08-08T15:04:02.662Z,100689.66
2018-08-08T15:06:31.122Z,100686.95
2018-08-08T15:08:59.573Z,100691.88
2018-08-08T15:11:28.051Z,100688.80
2018-08-08T15:13:56.534Z,100697.73
2018-08-08T15:16:24.994Z,100693.14
2018-08-08T15:18:53.446Z,100689.89
2018-08-08T15:21:21.919Z,100689.21
2018-08-08T15:23:50.358Z,100696.99
2018-08-08T15:26:18.818Z,100695.61
2018-08-08T15:28:47.255Z,100695.77
2018-08-08T15:31:15.828Z,100694.23
2018-08-08T15:33:44.193Z,100694.34
2018-08-08T15:36:12.628Z,100699.08
2018-08-08T15:38:41.094Z,100700.73
2018-08-08T15:41:09.537Z,100705.25
2018-08-08T15:43:38.001Z,100703.86
2018-08-08T15:46:06.653Z,100704.33
2018-08-08T15:48:35.121Z,100702.03
2018-08-08T15:51:03.513Z,100711.80
2018-08-08T15:53:32.012Z,100713.06
2018-08-08T15:56:00.493Z,100711.34
2018-08-08T15:58:28.949Z,100718.08
2018-08-08T16:00:57.406Z,100714.66
2018-08-08T16:03:25.870Z,100713.27
2018-08-08T16:05:54.321Z,100719.16
2018-08-08T16:08:22.781Z,100717.73
2018-08-08T16:10:51.231Z,100722.41
2018-08-08T16:13:19.730Z,100721.55
2018-08-08T16:15:48.101Z,100726.41
2018-08-08T16:18:16.502Z,100726.56
2018-08-08T16:20:44.902Z,100737.30
2018-08-08T16:23:13.286Z,100738.95
2018-08-08T16:25:41.657Z,100740.44
2018-08-08T16:28:10.046Z,100737.94
2018-08-08T16:30:38.409Z,100736.97
2018-08-08T16:33:06.901Z,100737.90
2018-08-08T16:35:35.270Z,100738.03
2018-08-08T16:38:03.662Z,100742.25
2018-08-08T16:40:32.027Z,100737.19
2018-08-08T16:43:00.423Z,100737.52
2018-08-08T16:45:28.797Z,100738.52
2018-08-08T16:47:57.178Z,100747.56
2018-08-08T16:50:25.541Z,100755.55
2018-08-08T16:52:53.927Z,100758.77
2018-08-08T16:55:22.293Z,100773.92
2018-08-08T16:57:50.685Z,100787.64
2018-08-08T17:00:19.058Z,100782.67
2018-08-08T17:02:47.525Z,100797.44
2018-08-08T17:05:15.895Z,100802.16
2018-08-08T17:07:44.277Z,100803.82
2018-08-08T17:10:12.646Z,100807.44
2018-08-08T17:12:41.052Z,100811.07
2018-08-08T17:15:10.030Z,100811.19
2018-08-08T17:17:38.427Z,100824.50
2018-08-08T17:20:07.731Z,100823.70
2018-08-08T17:22:36.135Z,100833.06
2018-08-08T17:25:04.914Z,100840.71
2018-08-08T17:27:33.322Z,100849.67
2018-08-08T17:30:02.053Z,100859.34
2018-08-08T17:32:30.441Z,100865.31
2018-08-08T17:34:58.815Z,100864.09
2018-08-08T17:37:27.197Z,100865.66
2018-08-08T17:39:55.601Z,100871.81
2018-08-08T17:42:23.995Z,100869.57
2018-08-08T17:44:52.407Z,100869.86
2018-08-08T17:47:20.777Z,100877.14
2018-08-08T17:49:49.194Z,100885.08
2018-08-08T17:52:17.573Z,100883.24
2018-08-08T17:54:45.974Z,100887.66
2018-08-08T17:57:14.350Z,100894.31
2018-08-08T17:59:42.753Z,100900.77
2018-08-08T18:02:11.151Z,100919.72
2018-08-08T18:04:39.555Z,100919.95
2018-08-08T18:07:07.937Z,100919.81
2018-08-08T18:09:36.338Z,100925.19
2018-08-08T18:12:04.776Z,100927.73
2018-08-08T18:14:33.182Z,100926.49
2018-08-08T18:17:01.563Z,100931.08
2018-08-08T18:19:29.965Z,100935.31
2018-08-08T18:21:58.354Z,100942.63
2018-08-08T18:24:26.757Z,100941.86
2018-08-08T18:26:55.146Z,100951.61
2018-08-08T18:29:23.544Z,100954.28
2018-08-08T18:31:52.014Z,100957.44
2018-08-08T18:34:20.398Z,100968.76
2018-08-08T18:36:48.763Z,100973.42
2018-08-08T18:39:17.162Z,100974.94
2018-08-08T18:41:45.538Z,100974.66
2018-08-08T18:44:13.953Z,100983.50
2018-08-08T18:46:42.322Z,100990.77
2018-08-08T18:49:10.780Z,101008.27
2018-08-08T18:51:39.172Z,101009.17
2018-08-08T18:54:07.869Z,101012.50
2018-08-08T18:56:36.239Z,101026.19
2018-08-08T18:59:04.629Z,101029.87
2018-08-08T19:01:33.000Z,101038.45
2018-08-08T19:04:01.427Z,101036.56
2018-08-08T19:06:30.282Z,101042.85
2018-08-08T19:08:58.669Z,101045.58
2018-08-08T19:11:27.029Z,101052.55
2018-08-08T19:13:55.448Z,101053.22
2018-08-08T19:16:23.824Z,101055.75
2018-08-08T19:18:52.218Z,101061.91
2018-08-08T19:21:20.589Z,101061.53
2018-08-08T19:23:48.973Z,101070.00
2018-08-08T19:26:17.374Z,101072.34
2018-08-08T19:28:45.783Z,101076.09
2018-08-08T19:31:14.155Z,101084.81
2018-08-08T19:33:42.566Z,101088.44
2018-08-08T19:36:10.929Z,101094.69
2018-08-08T19:38:39.306Z,101090.56
2018-08-08T19:41:07.697Z,101100.25
2018-08-08T19:43:36.062Z,101104.07
2018-08-08T19:46:04.445Z,101110.00
2018-08-08T19:48:32.805Z,101111.05
2018-08-08T19:51:01.194Z,101109.42
2018-08-08T19:53:30.269Z,101114.30
2018-08-08T19:55:58.653Z,101116.13
2018-08-08T19:58:27.018Z,101118.31
2018-08-08T20:00:55.450Z,101112.30
2018-08-08T20:03:24.210Z,101109.83
2018-08-08T20:05:52.805Z,101111.73
2018-08-08T20:08:27.301Z,101112.78
2018-08-08T20:10:56.738Z,101115.74
2018-08-08T20:13:25.129Z,101124.91
2018-08-08T20:15:55.745Z,101130.14
2018-08-08T20:18:24.613Z,101135.28
2018-08-08T20:20:53.531Z,101141.87
2018-08-08T20:23:22.185Z,101138.54
2018-08-08T20:25:50.585Z,101136.91
2018-08-08T20:28:19.350Z,101143.31
2018-08-08T20:30:48.887Z,101141.20
2018-08-08T20:33:17.963Z,101145.86
2018-08-08T20:35:46.373Z,101146.72
2018-08-08T20:38:14.754Z,101153.68
2018-08-08T20:40:43.522Z,101158.36
2018-08-08T20:43:11.898Z,101162.34
2018-08-08T20:45:40.490Z,101159.20
2018-08-08T20:48:08.866Z,101160.55
2018-08-08T20:50:37.253Z,101158.61
2018-08-08T20:53:05.621Z,101161.55
2018-08-08T20:55:34.017Z,101164.08
2018-08-08T20:58:02.571Z,101164.27
2018-08-08T21:00:30.971Z,101166.81
2018-08-08T21:02:59.337Z,101174.16
2018-08-08T21:05:27.736Z,101183.66
2018-08-08T21:07:56.126Z,101182.92
2018-08-08T21:10:24.506Z,101183.47
2018-08-08T21:12:52.895Z,101184.03
2018-08-08T21:15:21.291Z,101182.87
2018-08-08T21:17:49.662Z,101189.25
2018-08-08T21:20:18.045Z,101190.53
2018-08-08T21:22:46.422Z,101194.16
2018-08-08T21:25:14.822Z,101188.15
2018-08-08T21:27:43.198Z,101194.64
2018-08-08T21:30:11.634Z,101198.34
2018-08-08T21:32:39.993Z,101189.27
2018-08-08T21:35:08.382Z,101198.98
2018-08-08T21:37:36.750Z,101195.87
2018-08-08T21:40:05.476Z,101203.01
2018-08-08T21:42:33.856Z,101216.91
2018-08-08T21:45:02.225Z,101226.80
2018-08-08T21:47:30.616Z,101242.78
2018-08-08T21:49:58.999Z,101255.70
2018-08-08T21:52:27.402Z,101257.48
2018-08-08T21:55:06.893Z,101260.96
2018-08-08T21:57:46.669Z,101253.55
2018-08-08T22:00:28.201Z,101263.87
2018-08-08T22:04:10.826Z,101263.98
2018-08-08T22:06:50.489Z,101263.95
2018-08-08T22:09:30.348Z,101272.17
2018-08-08T22:12:14.845Z,101279.05
2018-08-08T22:14:54.597Z,101276.66
2018-08-08T22:17:34.315Z,101276.49
2018-08-08T22:20:02.707Z,101287.80
2018-08-08T22:22:31.097Z,101289.72
2018-08-08T22:24:59.495Z,101290.61
2018-08-08T22:27:27.885Z,101294.01
2018-08-08T22:29:56.266Z,101292.78
2018-08-08T22:32:25.665Z,101296.09
2018-08-08T22:34:54.037Z,101296.74
2018-08-08T22:37:22.428Z,101295.56
2018-08-08T22:39:50.823Z,101291.23
2018-08-08T22:42:19.214Z,101299.29
2018-08-08T22:44:47.577Z,101301.19
2018-08-08T22:47:15.973Z,101300.92
2018-08-08T22:49:44.339Z,101299.64
2018-08-08T22:52:12.736Z,101304.23
2018-08-08T22:54:41.113Z,101304.45
2018-08-08T22:57:09.523Z,101313.53
2018-08-08T22:59:37.891Z,101306.59
2018-08-08T23:02:06.430Z,101313.83
2018-08-08T23:04:34.810Z,101313.61
2018-08-08T23:07:03.218Z,101315.11
2018-08-08T23:09:31.602Z,101315.27
2018-08-08T23:12:00.000Z,101318.95
2018-08-08T23:14:28.397Z,101320.92
2018-08-08T23:16:56.768Z,101324.55
2018-08-08T23:19:25.162Z,101322.88
2018-08-08T23:21:53.542Z,101329.60
2018-08-08T23:24:21.937Z,101324.06
2018-08-08T23:26:50.314Z,101319.27
2018-08-08T23:29:18.706Z,101320.71
2018-08-08T23:31:47.077Z,101327.34
2018-08-08T23:34:15.476Z,101318.27
2018-08-08T23:36:43.858Z,101322.41
2018-08-08T23:39:12.258Z,101318.14
2018-08-08T23:41:40.625Z,101316.94
2018-08-08T23:44:09.025Z,101322.68
2018-08-08T23:46:37.399Z,101321.42
2018-08-08T23:49:05.791Z,101327.75
2018-08-08T23:51:34.207Z,101321.70
2018-08-08T23:54:02.601Z,101327.16
2018-08-08T23:56:30.974Z,101326.92
2018-08-08T23:58:59.372Z,101325.79
